Time;durP1;ratioP1;P1;durP2;ratioP2;P2;SDS_P1;SDS_P2;PMS_P1;PMS_P2;Temp;Humidity;BMP_temperature;BMP_pressure;BME280_temperature;BME280_humidity;BME280_pressure;Samples;Min_cycle;Max_cycle;Signal;HPM_P1;HPM_P2
2023/11/18 00:00:48;;;;;;;24.48;17.35;;;4.40;99.90;;;;;;5035145;28;20204;-64
2023/11/18 00:03:15;;;;;;;25.63;16.75;;;4.30;99.90;;;;;;5035429;28;20208;-65
2023/11/18 00:05:42;;;;;;;23.75;18.08;;;4.30;99.90;;;;;;5034219;28;20254;-66
2023/11/18 00:08:08;;;;;;;25.55;18.45;;;4.30;99.90;;;;;;5034753;28;20203;-65
2023/11/18 00:10:36;;;;;;;23.38;19.10;;;4.30;99.90;;;;;;5034375;28;20202;-66
2023/11/18 00:13:03;;;;;;;26.52;20.65;;;4.30;99.90;;;;;;5034489;28;20209;-67
2023/11/18 00:15:30;;;;;;;24.50;19.35;;;4.20;99.90;;;;;;5034210;28;20234;-67
2023/11/18 00:17:57;;;;;;;27.25;19.55;;;4.20;99.90;;;;;;5034971;28;20610;-69
2023/11/18 00:20:24;;;;;;;28.15;20.55;;;4.20;99.90;;;;;;5034601;28;20576;-67
2023/11/18 00:22:52;;;;;;;28.85;21.13;;;4.20;99.90;;;;;;5034173;28;20613;-67
2023/11/18 00:25:19;;;;;;;25.90;19.67;;;4.10;99.90;;;;;;5033692;28;20587;-66
2023/11/18 00:27:47;;;;;;;27.02;21.08;;;4.10;99.90;;;;;;5035543;28;20222;-66
2023/11/18 00:30:15;;;;;;;33.33;21.40;;;4.10;99.90;;;;;;5038174;28;20198;-66
2023/11/18 00:32:42;;;;;;;28.88;21.90;;;4.00;99.90;;;;;;5038455;28;20563;-65
2023/11/18 00:35:10;;;;;;;27.27;20.40;;;3.90;99.90;;;;;;5037859;28;20233;-65
2023/11/18 00:37:37;;;;;;;30.05;20.65;;;3.90;99.90;;;;;;5038442;28;20218;-66
2023/11/18 00:40:05;;;;;;;29.77;21.48;;;3.80;99.90;;;;;;5037204;28;20636;-65
2023/11/18 00:42:31;;;;;;;28.10;19.85;;;3.70;99.90;;;;;;5037490;28;20256;-64
2023/11/18 00:44:59;;;;;;;33.17;21.27;;;3.70;99.90;;;;;;5037790;28;20232;-66
2023/11/18 00:47:26;;;;;;;30.20;21.20;;;3.70;99.90;;;;;;5037645;28;20297;-67
2023/11/18 00:49:54;;;;;;;29.67;20.38;;;3.60;99.90;;;;;;5037705;28;20206;-66
2023/11/18 00:52:20;;;;;;;27.33;20.90;;;3.60;99.90;;;;;;5037250;28;20221;-67
2023/11/18 00:54:47;;;;;;;31.20;21.25;;;3.50;99.90;;;;;;5037110;28;20222;-65
2023/11/18 00:57:14;;;;;;;30.80;20.88;;;3.60;99.90;;;;;;5037636;28;20222;-65
2023/11/18 00:59:42;;;;;;;32.08;21.90;;;3.60;99.90;;;;;;5038011;28;20202;-67
2023/11/18 01:02:11;;;;;;;30.17;20.40;;;3.60;99.90;;;;;;5037137;28;20202;-64
2023/11/18 01:04:38;;;;;;;29.35;21.98;;;3.70;99.90;;;;;;5037262;28;20309;-65
2023/11/18 01:07:05;;;;;;;31.38;23.60;;;3.70;99.90;;;;;;5038039;28;20202;-66
2023/11/18 01:09:36;;;;;;;34.08;22.67;;;3.80;99.90;;;;;;5037047;28;20204;-66
2023/11/18 01:12:04;;;;;;;29.50;20.75;;;3.80;99.90;;;;;;5037418;28;20183;-65
2023/11/18 01:14:30;;;;;;;32.58;22.10;;;3.70;99.90;;;;;;5036443;28;20233;-66
2023/11/18 01:16:57;;;;;;;33.72;23.63;;;3.70;99.90;;;;;;5036894;28;20208;-66
2023/11/18 01:19:25;;;;;;;34.08;22.35;;;3.60;99.90;;;;;;5037057;28;20206;-66
2023/11/18 01:21:53;;;;;;;31.27;20.42;;;3.60;99.90;;;;;;5036409;28;20694;-66
2023/11/18 01:24:19;;;;;;;29.85;21.10;;;3.60;99.90;;;;;;5036601;28;20779;-66
2023/11/18 01:26:46;;;;;;;26.92;20.63;;;3.50;99.90;;;;;;5037127;28;20281;-65
2023/11/18 01:29:14;;;;;;;35.97;22.67;;;3.50;99.90;;;;;;5037346;28;20203;-65
2023/11/18 01:31:41;;;;;;;39.83;26.25;;;3.50;99.90;;;;;;5038386;28;20206;-65
2023/11/18 01:34:08;;;;;;;36.97;25.15;;;3.60;99.90;;;;;;5040436;28;20226;-65
2023/11/18 01:36:36;;;;;;;41.25;27.52;;;3.70;99.90;;;;;;5042508;28;20210;-65
2023/11/18 01:39:04;;;;;;;50.30;29.92;;;3.70;99.90;;;;;;5037999;28;20248;-65
2023/11/18 01:41:32;;;;;;;46.08;30.05;;;3.90;99.90;;;;;;5037893;28;20206;-65
2023/11/18 01:43:59;;;;;;;43.45;28.45;;;4.00;99.90;;;;;;5037407;28;20222;-65
2023/11/18 01:46:29;;;;;;;51.45;32.13;;;4.00;99.90;;;;;;5038009;28;20576;-66
2023/11/18 01:48:58;;;;;;;56.35;32.00;;;4.10;99.90;;;;;;5037907;28;20293;-64
2023/11/18 01:51:25;;;;;;;53.83;33.42;;;4.30;99.90;;;;;;5037577;28;20229;-64
2023/11/18 01:53:55;;;;;;;52.35;32.13;;;4.30;99.90;;;;;;5036369;28;20206;-65
2023/11/18 01:56:25;;;;;;;50.47;30.33;;;4.40;99.90;;;;;;5038638;28;20210;-66
2023/11/18 01:58:52;;;;;;;47.60;30.83;;;4.50;99.90;;;;;;5037382;28;20649;-66
2023/11/18 02:01:20;;;;;;;54.55;33.08;;;4.60;99.90;;;;;;5037059;28;20285;-65
2023/11/18 02:03:47;;;;;;;51.13;31.70;;;4.60;99.90;;;;;;5036398;28;20198;-65
2023/11/18 02:06:16;;;;;;;49.05;30.98;;;4.70;99.90;;;;;;5035994;28;20248;-66
2023/11/18 02:08:43;;;;;;;48.30;31.20;;;4.70;99.90;;;;;;5035799;28;20289;-67
2023/11/18 02:11:18;;;;;;;47.80;32.75;;;4.80;99.90;;;;;;5036050;28;20284;-66
2023/11/18 02:13:49;;;;;;;50.08;30.95;;;4.80;99.90;;;;;;5036756;28;20218;-66
2023/11/18 02:16:17;;;;;;;50.08;31.85;;;4.90;99.90;;;;;;5036782;28;20187;-66
2023/11/18 02:18:45;;;;;;;47.78;31.83;;;4.90;99.90;;;;;;5036028;28;20222;-66
2023/11/18 02:21:14;;;;;;;50.47;31.42;;;5.00;99.90;;;;;;5036624;28;20206;-66
2023/11/18 02:23:42;;;;;;;46.47;30.27;;;5.00;99.90;;;;;;5035954;28;20210;-66
2023/11/18 02:26:10;;;;;;;45.35;28.90;;;5.00;99.90;;;;;;5035842;28;20206;-66
2023/11/18 02:28:37;;;;;;;41.47;27.90;;;5.00;99.90;;;;;;5035992;28;20202;-65
2023/11/18 02:31:12;;;;;;;39.33;27.00;;;5.10;99.90;;;;;;5035985;28;20584;-67
2023/11/18 02:33:52;;;;;;;41.78;28.23;;;5.10;99.90;;;;;;5036638;28;20190;-66
2023/11/18 02:36:27;;;;;;;40.17;27.40;;;5.10;99.90;;;;;;5036148;28;20186;-66
2023/11/18 02:38:55;;;;;;;42.53;29.25;;;5.10;99.90;;;;;;5036323;28;20206;-64
2023/11/18 02:41:25;;;;;;;35.65;27.05;;;5.10;99.90;;;;;;5037151;28;20202;-66
2023/11/18 02:43:52;;;;;;;39.47;25.45;;;5.20;99.90;;;;;;5036763;28;20209;-66
2023/11/18 02:46:21;;;;;;;39.25;27.70;;;5.20;99.90;;;;;;5035745;28;20214;-66
2023/11/18 02:48:48;;;;;;;42.65;26.08;;;5.20;99.90;;;;;;5035786;28;20210;-65
2023/11/18 02:51:16;;;;;;;34.88;26.10;;;5.20;99.90;;;;;;5034359;28;20210;-65
2023/11/18 02:53:44;;;;;;;38.90;25.80;;;5.30;99.90;;;;;;5034341;28;20221;-65
2023/11/18 02:56:11;;;;;;;35.10;25.52;;;5.30;99.90;;;;;;5034405;28;20226;-64
2023/11/18 02:58:39;;;;;;;33.00;24.63;;;5.30;99.90;;;;;;5034130;28;20696;-65
2023/11/18 03:01:06;;;;;;;34.33;25.50;;;5.30;99.90;;;;;;5035780;28;20211;-65
2023/11/18 03:03:33;;;;;;;29.63;23.50;;;5.30;99.90;;;;;;5034517;28;20206;-64
2023/11/18 03:06:00;;;;;;;32.70;23.17;;;5.30;99.90;;;;;;5034225;28;20218;-66
2023/11/18 03:08:28;;;;;;;28.88;21.85;;;5.30;99.90;;;;;;5034177;28;20194;-65
2023/11/18 03:10:55;;;;;;;29.50;21.77;;;5.30;99.90;;;;;;5034071;28;20748;-66
2023/11/18 03:13:23;;;;;;;36.05;23.73;;;5.20;99.90;;;;;;5034441;28;20213;-65
2023/11/18 03:15:51;;;;;;;35.30;24.33;;;5.10;99.90;;;;;;5105129;23;20224;-65
2023/11/18 03:18:18;;;;;;;35.25;23.08;;;5.10;99.90;;;;;;5098457;28;20701;-63
2023/11/18 03:20:45;;;;;;;34.25;24.85;;;5.10;99.90;;;;;;5098155;28;20287;-65
2023/11/18 03:23:12;;;;;;;34.95;24.35;;;5.00;99.90;;;;;;5097057;28;20666;-64
2023/11/18 03:25:39;;;;;;;33.88;23.60;;;5.00;99.90;;;;;;5096820;28;20226;-65
2023/11/18 03:28:06;;;;;;;40.25;26.70;;;5.00;99.90;;;;;;5097610;28;20249;-66
2023/11/18 03:30:35;;;;;;;37.85;27.35;;;5.00;99.90;;;;;;5096600;28;20341;-65
2023/11/18 03:33:03;;;;;;;42.45;28.85;;;5.00;99.90;;;;;;5096433;28;20235;-63
2023/11/18 03:35:31;;;;;;;39.45;28.00;;;5.00;99.90;;;;;;5097776;28;20220;-62
2023/11/18 03:37:57;;;;;;;39.90;26.65;;;4.90;99.90;;;;;;5099722;28;20220;-64
2023/11/18 03:40:25;;;;;;;43.35;28.10;;;5.00;99.90;;;;;;5100813;28;20212;-65
2023/11/18 03:42:53;;;;;;;43.22;27.60;;;5.00;99.90;;;;;;5104102;28;20222;-64
2023/11/18 03:45:20;;;;;;;43.42;28.33;;;5.00;99.90;;;;;;5100266;28;20220;-64
2023/11/18 03:47:49;;;;;;;40.35;29.05;;;5.00;99.90;;;;;;5097115;28;20196;-64
2023/11/18 03:50:18;;;;;;;42.10;29.25;;;5.00;99.90;;;;;;5096698;28;20196;-64
2023/11/18 03:52:45;;;;;;;46.03;28.98;;;5.00;99.90;;;;;;5096781;28;20223;-64
2023/11/18 03:55:12;;;;;;;41.35;28.23;;;5.00;99.90;;;;;;5096884;28;20585;-66
2023/11/18 03:57:38;;;;;;;42.92;27.88;;;5.00;99.90;;;;;;5096008;28;20212;-65
2023/11/18 04:00:07;;;;;;;39.50;28.33;;;5.10;99.90;;;;;;5095657;28;20295;-64
2023/11/18 04:02:35;;;;;;;41.45;28.33;;;5.10;99.90;;;;;;5096339;28;20200;-64
2023/11/18 04:05:03;;;;;;;36.95;27.13;;;5.20;99.90;;;;;;5096832;28;20251;-66
2023/11/18 04:07:31;;;;;;;46.63;30.67;;;5.20;99.90;;;;;;5095582;28;20288;-66
2023/11/18 04:12:35;;;;;;;38.60;26.75;;;5.20;99.90;;;;;;5115301;27;20548;-63
2023/11/18 04:15:04;;;;;;;40.70;27.42;;;5.30;99.90;;;;;;5113898;28;20234;-64
2023/11/18 04:17:31;;;;;;;40.28;26.70;;;5.30;99.90;;;;;;5113617;28;20200;-65
2023/11/18 04:19:58;;;;;;;36.53;25.90;;;5.20;99.90;;;;;;5113450;28;20195;-64
2023/11/18 04:22:24;;;;;;;39.75;27.88;;;5.20;99.90;;;;;;5113557;28;20207;-65
2023/11/18 04:24:51;;;;;;;32.90;24.95;;;5.20;99.90;;;;;;5113301;28;20227;-64
2023/11/18 04:27:18;;;;;;;38.40;26.75;;;5.20;99.90;;;;;;5112551;28;20203;-65
2023/11/18 04:29:46;;;;;;;37.70;26.42;;;5.20;99.90;;;;;;5112165;28;20210;-65
2023/11/18 04:32:13;;;;;;;43.72;26.80;;;5.20;99.90;;;;;;5112121;28;20290;-65
2023/11/18 04:34:42;;;;;;;36.70;25.55;;;5.20;99.90;;;;;;5111801;28;20231;-64
2023/11/18 04:37:09;;;;;;;34.83;26.05;;;5.20;99.90;;;;;;5112013;28;20298;-65
2023/11/18 04:39:37;;;;;;;33.88;25.33;;;5.20;99.90;;;;;;5112709;28;20389;-65
2023/11/18 04:42:04;;;;;;;36.38;25.10;;;5.20;99.90;;;;;;5112225;28;20665;-64
2023/11/18 04:44:31;;;;;;;42.20;25.00;;;5.20;99.90;;;;;;5112890;28;20225;-63
2023/11/18 04:47:01;;;;;;;37.38;24.30;;;5.20;99.90;;;;;;5113503;28;20249;-64
2023/11/18 04:49:27;;;;;;;33.60;24.98;;;5.30;99.90;;;;;;5112775;28;20261;-65
2023/11/18 04:51:54;;;;;;;34.97;25.30;;;5.30;99.90;;;;;;5113429;28;20216;-65
2023/11/18 04:54:21;;;;;;;40.72;26.80;;;5.30;99.90;;;;;;5115075;28;20220;-66
2023/11/18 04:56:48;;;;;;;39.15;27.73;;;5.30;99.90;;;;;;5114431;28;20203;-64
2023/11/18 04:59:15;;;;;;;32.58;24.95;;;5.30;99.90;;;;;;5113207;28;20214;-64
2023/11/18 05:01:41;;;;;;;35.70;24.77;;;5.30;99.90;;;;;;5113787;28;20202;-64
2023/11/18 05:04:10;;;;;;;39.10;26.75;;;5.30;99.90;;;;;;5113871;28;20206;-64
2023/11/18 05:06:37;;;;;;;38.30;25.80;;;5.30;99.90;;;;;;5114484;28;20204;-63
2023/11/18 05:09:07;;;;;;;32.45;24.58;;;5.20;99.90;;;;;;5115761;28;20195;-64
2023/11/18 05:11:34;;;;;;;37.10;25.17;;;5.20;99.90;;;;;;5118808;28;20216;-64
2023/11/18 05:14:03;;;;;;;35.85;25.75;;;5.20;99.90;;;;;;5127327;28;20272;-65
2023/11/18 05:16:30;;;;;;;33.20;23.75;;;5.20;99.90;;;;;;5118858;28;20204;-63
2023/11/18 05:18:56;;;;;;;33.75;25.85;;;5.20;99.90;;;;;;5114643;28;20283;-64
2023/11/18 05:21:24;;;;;;;36.47;25.55;;;5.20;99.90;;;;;;5114018;28;20206;-63
2023/11/18 05:23:51;;;;;;;37.55;25.63;;;5.20;99.90;;;;;;5100301;28;20204;-65
2023/11/18 05:26:18;;;;;;;35.58;25.65;;;5.20;99.90;;;;;;5101943;28;20285;-62
2023/11/18 05:28:45;;;;;;;34.85;24.58;;;5.20;99.90;;;;;;5106528;28;20204;-65
2023/11/18 05:31:12;;;;;;;35.42;25.13;;;5.20;99.90;;;;;;5105415;28;20220;-64
2023/11/18 05:33:39;;;;;;;36.85;26.67;;;5.20;99.90;;;;;;5105894;28;20197;-64
2023/11/18 05:36:07;;;;;;;37.85;25.23;;;5.20;99.90;;;;;;5100328;28;20280;-65
2023/11/18 05:38:35;;;;;;;36.03;25.27;;;5.20;99.90;;;;;;5102356;28;20200;-65
2023/11/18 05:41:03;;;;;;;38.90;26.67;;;5.20;99.90;;;;;;5102945;28;20238;-64
2023/11/18 05:43:36;;;;;;;38.17;26.58;;;5.20;99.90;;;;;;5100620;28;20277;-63
2023/11/18 05:46:20;;;;;;;39.42;26.92;;;5.30;99.90;;;;;;5100678;28;20261;-64
2023/11/18 05:48:47;;;;;;;41.15;26.10;;;5.30;99.90;;;;;;5101103;28;20187;-63
2023/11/18 05:51:14;;;;;;;43.20;26.42;;;5.30;99.90;;;;;;5100106;28;20224;-64
2023/11/18 05:53:45;;;;;;;41.28;26.20;;;5.30;99.90;;;;;;5098809;28;20596;-65
2023/11/18 05:56:12;;;;;;;42.85;25.75;;;5.30;99.90;;;;;;5098555;28;20224;-65
2023/11/18 05:58:39;;;;;;;39.80;25.08;;;5.30;99.90;;;;;;5097643;28;20204;-63
2023/11/18 06:01:08;;;;;;;40.35;27.42;;;5.20;99.90;;;;;;5098061;28;20618;-64
2023/11/18 06:03:37;;;;;;;47.25;25.20;;;5.20;99.90;;;;;;5098080;28;20666;-64
2023/11/18 06:06:06;;;;;;;39.15;24.10;;;5.10;99.90;;;;;;5100122;28;20224;-64
2023/11/18 06:08:33;;;;;;;42.53;25.75;;;5.00;99.90;;;;;;5097600;28;20205;-64
2023/11/18 06:11:12;;;;;;;40.25;26.15;;;5.00;99.90;;;;;;5097074;28;20208;-64
2023/11/18 06:13:42;;;;;;;39.28;25.15;;;4.90;99.90;;;;;;5097855;28;20192;-64
2023/11/18 06:16:13;;;;;;;41.50;25.40;;;4.80;99.90;;;;;;5100524;28;20220;-64
2023/11/18 06:18:41;;;;;;;38.95;24.92;;;4.80;99.90;;;;;;5099723;28;20222;-64
2023/11/18 06:21:08;;;;;;;40.10;24.48;;;4.70;99.90;;;;;;5102484;28;20211;-65
2023/11/18 06:23:35;;;;;;;48.20;28.05;;;4.70;99.90;;;;;;5102098;28;20223;-64
2023/11/18 06:26:04;;;;;;;38.90;26.33;;;4.60;99.90;;;;;;5102167;28;20603;-64
2023/11/18 06:28:31;;;;;;;46.17;27.70;;;4.60;99.90;;;;;;5103451;28;20658;-65
2023/11/18 06:30:57;;;;;;;51.20;28.63;;;4.60;99.90;;;;;;5100235;28;20235;-64
2023/11/18 06:33:27;;;;;;;48.22;28.10;;;4.60;99.90;;;;;;5099812;28;20207;-64
2023/11/18 06:35:56;;;;;;;50.80;28.42;;;4.50;99.90;;;;;;5100998;28;20221;-64
2023/11/18 06:38:24;;;;;;;51.78;29.90;;;4.50;99.90;;;;;;5100893;28;20204;-63
2023/11/18 06:40:52;;;;;;;51.25;27.60;;;4.50;99.90;;;;;;5101052;28;20219;-64
2023/11/18 06:43:21;;;;;;;48.85;29.80;;;4.50;99.90;;;;;;5100985;28;20269;-65
2023/11/18 06:45:48;;;;;;;47.80;28.30;;;4.40;99.90;;;;;;5100799;28;20255;-63
2023/11/18 06:48:19;;;;;;;45.85;27.10;;;4.40;99.90;;;;;;5100656;28;20234;-63
2023/11/18 06:50:47;;;;;;;56.15;28.92;;;4.30;99.90;;;;;;5098983;28;20185;-65
2023/11/18 06:53:15;;;;;;;50.08;27.08;;;4.30;99.90;;;;;;5101020;28;20285;-64
2023/11/18 06:55:42;;;;;;;51.67;29.83;;;4.20;99.90;;;;;;5099754;28;20220;-63
2023/11/18 06:58:09;;;;;;;54.03;29.08;;;4.20;99.90;;;;;;5098242;28;20207;-64
2023/11/18 07:00:38;;;;;;;53.55;30.83;;;4.10;99.90;;;;;;5103079;28;20226;-64
2023/11/18 07:03:05;;;;;;;61.20;30.38;;;4.10;99.90;;;;;;5102557;28;20287;-63
2023/11/18 07:05:32;;;;;;;57.70;30.40;;;4.10;99.90;;;;;;5101431;28;20229;-63
2023/11/18 07:07:59;;;;;;;54.78;29.73;;;4.20;99.90;;;;;;5101304;28;20226;-64
2023/11/18 07:10:27;;;;;;;50.35;29.95;;;4.20;99.90;;;;;;5100883;28;20211;-65
2023/11/18 07:12:54;;;;;;;59.85;30.48;;;4.20;99.90;;;;;;5101809;28;20225;-63
2023/11/18 07:15:21;;;;;;;58.25;32.10;;;4.30;99.90;;;;;;5101535;28;20226;-65
2023/11/18 07:17:49;;;;;;;48.92;27.65;;;4.30;99.90;;;;;;5101749;28;20199;-63
2023/11/18 07:20:17;;;;;;;58.15;31.88;;;4.40;99.90;;;;;;5100502;28;20216;-65
2023/11/18 07:22:44;;;;;;;59.35;31.75;;;4.40;99.90;;;;;;5102248;28;20203;-64
2023/11/18 07:25:12;;;;;;;59.65;31.15;;;4.50;99.90;;;;;;5100887;28;20273;-64
2023/11/18 07:27:39;;;;;;;62.85;33.55;;;4.50;99.90;;;;;;5100111;28;20197;-64
2023/11/18 07:30:10;;;;;;;58.33;30.75;;;4.70;99.90;;;;;;5100789;28;20262;-64
2023/11/18 07:32:37;;;;;;;57.95;29.30;;;4.80;99.90;;;;;;5103345;28;20315;-64
2023/11/18 07:35:08;;;;;;;58.40;31.77;;;4.80;99.90;;;;;;5107667;28;20216;-64
2023/11/18 07:37:36;;;;;;;59.58;30.05;;;4.90;99.90;;;;;;5109281;28;20216;-64
2023/11/18 07:40:05;;;;;;;54.33;30.02;;;4.90;99.90;;;;;;5102315;28;20205;-64
2023/11/18 07:42:34;;;;;;;51.63;28.85;;;5.00;99.90;;;;;;5099028;28;20193;-64
2023/11/18 07:45:03;;;;;;;56.17;31.85;;;5.10;99.90;;;;;;5097148;28;20220;-64
2023/11/18 07:47:31;;;;;;;52.60;31.27;;;5.10;99.90;;;;;;5098327;28;20204;-65
2023/11/18 07:49:58;;;;;;;54.47;29.17;;;5.20;99.90;;;;;;5098930;28;20230;-64
2023/11/18 07:52:28;;;;;;;58.08;29.73;;;5.20;99.90;;;;;;5099808;28;20212;-64
2023/11/18 07:54:55;;;;;;;54.05;29.55;;;5.20;99.90;;;;;;5106442;28;20288;-64
2023/11/18 07:57:23;;;;;;;50.22;27.75;;;5.30;99.90;;;;;;5106858;28;20272;-65
2023/11/18 07:59:50;;;;;;;51.45;28.83;;;5.30;99.90;;;;;;5105607;28;20204;-64
2023/11/18 08:02:18;;;;;;;58.13;29.02;;;5.30;99.90;;;;;;5101161;28;20196;-65
2023/11/18 08:04:45;;;;;;;51.10;28.25;;;5.40;99.90;;;;;;5100155;28;20561;-66
2023/11/18 08:07:13;;;;;;;53.05;29.70;;;5.40;99.90;;;;;;5099115;28;20227;-64
2023/11/18 08:09:43;;;;;;;48.53;25.70;;;5.40;99.90;;;;;;5096206;28;20204;-63
2023/11/18 08:12:10;;;;;;;51.50;28.88;;;5.50;99.90;;;;;;5097221;28;20224;-64
2023/11/18 08:14:36;;;;;;;53.92;27.05;;;5.50;99.90;;;;;;5096441;28;20292;-64
2023/11/18 08:17:04;;;;;;;50.88;26.65;;;5.60;99.90;;;;;;5097028;28;20576;-65
2023/11/18 08:19:34;;;;;;;45.85;27.55;;;5.70;99.90;;;;;;5096057;28;20208;-65
2023/11/18 08:22:01;;;;;;;49.80;29.02;;;5.70;99.90;;;;;;5095766;28;20200;-65
2023/11/18 08:24:29;;;;;;;46.40;27.35;;;5.80;99.90;;;;;;5096044;28;20247;-64
2023/11/18 08:26:57;;;;;;;52.35;27.67;;;5.90;99.90;;;;;;5095912;28;20249;-65
2023/11/18 08:29:24;;;;;;;44.20;25.38;;;6.00;99.90;;;;;;5096852;28;20204;-65
2023/11/18 08:31:51;;;;;;;46.03;26.77;;;6.00;99.90;;;;;;5096133;28;20775;-65
2023/11/18 08:34:18;;;;;;;49.78;27.85;;;6.10;99.90;;;;;;5097003;28;20270;-65
2023/11/18 08:36:45;;;;;;;47.25;24.77;;;6.10;99.90;;;;;;5096498;28;20236;-65
2023/11/18 08:39:16;;;;;;;53.00;26.20;;;6.20;99.90;;;;;;5095872;28;20202;-65
2023/11/18 08:41:43;;;;;;;42.85;24.45;;;6.20;99.90;;;;;;5096063;28;20211;-65
2023/11/18 08:44:12;;;;;;;38.03;23.05;;;6.20;99.90;;;;;;5094949;28;20662;-64
2023/11/18 08:46:39;;;;;;;43.60;23.77;;;6.30;99.90;;;;;;5095729;28;20204;-64
2023/11/18 08:49:11;;;;;;;40.60;22.50;;;6.30;99.90;;;;;;5096138;28;20254;-65
2023/11/18 08:51:38;;;;;;;47.95;24.35;;;6.40;99.90;;;;;;5095384;28;20192;-65
2023/11/18 08:54:22;;;;;;;41.50;24.05;;;6.40;99.90;;;;;;5095331;28;20208;-64
2023/11/18 08:56:50;;;;;;;44.35;24.77;;;6.50;99.90;;;;;;5095099;28;20189;-64
2023/11/18 08:59:22;;;;;;;39.47;22.92;;;6.50;99.90;;;;;;5099144;28;20318;-64
2023/11/18 09:01:48;;;;;;;37.85;23.70;;;6.60;99.90;;;;;;5099826;28;20184;-64
2023/11/18 09:04:15;;;;;;;42.42;23.55;;;6.70;99.90;;;;;;5099306;28;20228;-65
2023/11/18 09:06:42;;;;;;;40.50;22.15;;;6.70;99.90;;;;;;5099061;28;20200;-65
2023/11/18 09:09:11;;;;;;;40.33;22.90;;;6.80;99.90;;;;;;5099095;28;20197;-66
2023/11/18 09:11:40;;;;;;;35.80;23.98;;;6.80;99.90;;;;;;5098610;28;20218;-65
2023/11/18 09:14:08;;;;;;;40.20;22.05;;;6.80;99.90;;;;;;5100079;28;20253;-65
2023/11/18 09:16:39;;;;;;;38.75;23.15;;;6.90;99.90;;;;;;5099957;28;20200;-66
2023/11/18 09:19:06;;;;;;;44.67;23.52;;;6.90;99.90;;;;;;5099316;28;20185;-65
2023/11/18 09:21:35;;;;;;;43.88;22.70;;;6.90;99.90;;;;;;5098910;28;20567;-64
2023/11/18 09:24:04;;;;;;;45.13;24.05;;;6.90;99.90;;;;;;5098832;28;20670;-65
2023/11/18 09:26:31;;;;;;;42.80;23.58;;;6.90;99.90;;;;;;5099431;28;20581;-64
2023/11/18 09:29:01;;;;;;;42.20;23.63;;;6.90;99.90;;;;;;5099135;28;20220;-64
2023/11/18 09:31:28;;;;;;;35.05;21.75;;;6.90;99.90;;;;;;5099011;28;20211;-65
2023/11/18 09:33:57;;;;;;;39.90;24.25;;;7.00;99.90;;;;;;5098191;28;20217;-65
2023/11/18 09:36:24;;;;;;;36.25;24.10;;;7.10;99.90;;;;;;5098136;28;20208;-65
2023/11/18 09:38:52;;;;;;;36.63;22.48;;;7.20;99.90;;;;;;5097490;28;20197;-64
2023/11/18 09:41:19;;;;;;;38.83;22.90;;;7.20;99.90;;;;;;5097578;28;20216;-64
2023/11/18 09:43:47;;;;;;;31.88;22.23;;;7.30;99.90;;;;;;5097394;28;20198;-64
2023/11/18 09:46:15;;;;;;;38.95;21.27;;;7.30;99.90;;;;;;5097431;28;20221;-64
2023/11/18 09:48:47;;;;;;;39.13;23.00;;;7.30;99.90;;;;;;5099102;28;20207;-64
2023/11/18 09:51:22;;;;;;;32.65;21.48;;;7.30;99.90;;;;;;5097387;28;20208;-65
2023/11/18 09:53:52;;;;;;;37.20;21.52;;;7.20;99.90;;;;;;5097429;28;20212;-64
2023/11/18 09:56:27;;;;;;;38.03;21.30;;;7.20;99.90;;;;;;5097529;28;20285;-65
2023/11/18 09:59:06;;;;;;;32.83;21.75;;;7.10;99.90;;;;;;5097450;28;20622;-64
2023/11/18 10:01:39;;;;;;;33.88;21.45;;;7.00;99.90;;;;;;5098012;28;20216;-65
2023/11/18 10:04:07;;;;;;;39.55;21.77;;;6.90;99.90;;;;;;5101704;28;20181;-65
2023/11/18 10:06:36;;;;;;;34.30;20.80;;;6.90;99.90;;;;;;5103487;28;20211;-65
2023/11/18 10:09:15;;;;;;;34.63;21.02;;;6.90;99.90;;;;;;5098078;28;20201;-65
2023/11/18 10:11:41;;;;;;;32.55;19.75;;;7.00;99.90;;;;;;5097058;28;20208;-64
2023/11/18 10:14:10;;;;;;;34.45;18.67;;;7.10;99.90;;;;;;5097580;28;20633;-64
2023/11/18 10:16:38;;;;;;;31.52;18.17;;;7.20;99.90;;;;;;5097400;28;20283;-65
2023/11/18 10:19:08;;;;;;;31.27;19.00;;;7.30;99.90;;;;;;5096576;28;20197;-65
2023/11/18 10:21:40;;;;;;;28.92;16.27;;;7.40;99.90;;;;;;5096446;28;20634;-65
2023/11/18 10:24:14;;;;;;;31.25;17.00;;;7.50;99.90;;;;;;5096679;28;20530;-65
2023/11/18 10:26:41;;;;;;;28.67;14.32;;;7.60;99.90;;;;;;5100829;28;20180;-64
2023/11/18 10:29:12;;;;;;;24.08;15.88;;;7.80;99.90;;;;;;5104291;28;20291;-64
2023/11/18 10:31:44;;;;;;;25.40;15.60;;;7.80;99.90;;;;;;5101288;28;20191;-65
2023/11/18 10:34:15;;;;;;;23.50;12.85;;;7.90;99.90;;;;;;5098941;28;20205;-64
2023/11/18 10:37:02;;;;;;;21.40;13.23;;;8.00;99.90;;;;;;5098110;28;20208;-64
2023/11/18 10:39:31;;;;;;;20.52;12.23;;;8.10;99.90;;;;;;5100627;28;20188;-65
2023/11/18 10:42:00;;;;;;;20.45;12.32;;;8.20;99.90;;;;;;5104280;28;20196;-65
2023/11/18 10:44:27;;;;;;;19.52;13.43;;;8.30;99.90;;;;;;5097973;28;20690;-64
2023/11/18 10:46:54;;;;;;;21.08;12.10;;;8.30;99.90;;;;;;5097688;28;20531;-66
2023/11/18 10:49:22;;;;;;;18.65;11.40;;;8.40;99.90;;;;;;5097480;28;20287;-64
2023/11/18 10:51:51;;;;;;;20.90;11.77;;;8.40;99.90;;;;;;5096806;28;20726;-65
2023/11/18 10:54:19;;;;;;;18.52;11.63;;;8.50;99.90;;;;;;5096577;28;20228;-65
2023/11/18 10:56:49;;;;;;;17.42;10.35;;;8.50;99.90;;;;;;5096837;28;20667;-65
2023/11/18 10:59:18;;;;;;;14.70;10.77;;;8.60;99.90;;;;;;5105391;28;20204;-64
2023/11/18 11:01:48;;;;;;;19.50;12.38;;;8.70;99.90;;;;;;5098277;28;20196;-63
2023/11/18 11:04:16;;;;;;;15.73;11.32;;;8.70;99.90;;;;;;5096835;28;20247;-65
2023/11/18 11:06:51;;;;;;;13.95;9.13;;;8.80;99.90;;;;;;5096847;28;20657;-64
2023/11/18 11:09:24;;;;;;;14.45;10.48;;;8.80;99.90;;;;;;5097993;28;20184;-65
2023/11/18 11:11:55;;;;;;;17.33;10.20;;;8.80;99.90;;;;;;5098587;28;20208;-65
2023/11/18 11:14:23;;;;;;;14.82;9.98;;;8.90;99.90;;;;;;5098916;28;20228;-65
2023/11/18 11:16:55;;;;;;;11.63;8.50;;;9.00;99.90;;;;;;5100183;28;20228;-64
2023/11/18 11:19:27;;;;;;;13.85;8.27;;;9.00;99.90;;;;;;5100071;28;20194;-65
2023/11/18 11:22:05;;;;;;;10.07;8.40;;;9.00;99.90;;;;;;5099777;28;20185;-66
2023/11/18 11:24:49;;;;;;;10.63;8.07;;;9.00;99.90;;;;;;5100042;28;20216;-66
2023/11/18 11:27:29;;;;;;;10.20;7.97;;;9.00;99.90;;;;;;5100135;28;20519;-65
2023/11/18 11:30:00;;;;;;;10.10;6.88;;;9.00;99.90;;;;;;5098490;28;20180;-64
2023/11/18 11:32:38;;;;;;;9.77;6.68;;;9.00;99.90;;;;;;5097694;28;20550;-66
2023/11/18 11:35:16;;;;;;;6.60;5.88;;;9.00;99.90;;;;;;5098641;28;20220;-65
2023/11/18 11:37:47;;;;;;;9.95;6.38;;;9.10;99.90;;;;;;5097811;28;20189;-65
2023/11/18 11:40:21;;;;;;;6.77;5.97;;;9.10;99.90;;;;;;5099365;28;20211;-66
2023/11/18 11:42:54;;;;;;;8.13;6.22;;;9.10;99.90;;;;;;5097848;28;20471;-65
2023/11/18 11:45:28;;;;;;;7.37;6.20;;;9.00;99.90;;;;;;5098518;28;20224;-65
2023/11/18 11:48:13;;;;;;;7.22;6.00;;;9.10;99.90;;;;;;5096610;28;20480;-64
2023/11/18 11:50:54;;;;;;;7.27;6.30;;;9.10;99.90;;;;;;5096671;28;20215;-64
2023/11/18 11:53:23;;;;;;;8.83;6.20;;;9.10;99.90;;;;;;5096207;28;20462;-63
2023/11/18 11:55:54;;;;;;;8.77;7.65;;;9.10;99.90;;;;;;5096427;28;20458;-65
2023/11/18 11:58:28;;;;;;;9.20;6.72;;;9.10;99.90;;;;;;5097242;28;20280;-65
2023/11/18 12:00:55;;;;;;;7.80;5.83;;;9.10;99.90;;;;;;5098075;28;20207;-65
2023/11/18 12:03:23;;;;;;;8.48;6.75;;;9.00;99.90;;;;;;5097193;28;20439;-64
2023/11/18 12:05:52;;;;;;;8.17;6.20;;;9.00;99.90;;;;;;5096484;28;20224;-66
2023/11/18 12:08:19;;;;;;;12.38;7.32;;;8.90;99.90;;;;;;5096613;28;20510;-66
2023/11/18 12:10:55;;;;;;;7.90;6.45;;;8.90;99.90;;;;;;5097239;28;20207;-65
2023/11/18 12:13:26;;;;;;;8.50;6.93;;;8.90;99.90;;;;;;5103392;28;20204;-65
2023/11/18 12:15:58;;;;;;;7.93;6.93;;;8.90;99.90;;;;;;5102520;28;20239;-65
2023/11/18 12:18:25;;;;;;;8.30;7.30;;;8.90;99.90;;;;;;5099855;28;20184;-64
2023/11/18 12:20:55;;;;;;;8.45;6.93;;;8.90;99.90;;;;;;5097484;28;20204;-64
2023/11/18 12:23:24;;;;;;;10.80;7.97;;;8.90;99.90;;;;;;5097846;28;20200;-65
2023/11/18 12:25:55;;;;;;;10.40;8.35;;;8.80;99.90;;;;;;5098555;28;20220;-66
2023/11/18 12:28:26;;;;;;;8.77;7.97;;;8.80;99.90;;;;;;5097893;28;20210;-65
2023/11/18 12:30:56;;;;;;;11.60;8.25;;;8.80;99.90;;;;;;5097137;28;20216;-65
2023/11/18 12:33:26;;;;;;;10.73;7.17;;;8.80;99.90;;;;;;5102986;28;20220;-64
2023/11/18 12:36:44;;;;;;;9.27;8.25;;;8.80;99.90;;;;;;5104134;28;20814;-64
2023/11/18 12:39:58;;;;;;;8.97;7.40;;;8.80;99.90;;;;;;5109699;28;20189;-65
2023/11/18 12:43:04;;;;;;;10.03;8.00;;;8.80;99.90;;;;;;5107720;28;20482;-66
2023/11/18 12:46:15;;;;;;;11.60;8.27;;;8.90;99.90;;;;;;5105014;28;20458;-65
2023/11/18 12:48:46;;;;;;;10.10;8.10;;;8.80;99.90;;;;;;5039894;28;20475;-66
2023/11/18 12:51:19;;;;;;;10.23;8.70;;;8.80;99.90;;;;;;5087812;28;20233;-64